sensor_id;sensor_type;location;lat;lon;timestamp;pressure;altitude;pressure_sealevel;temperature;humidity
5284;BME280;15377;48.540;9.268;2024-01-30T00:00:21;98828.38;;;1.71;100.00
5284;BME280;15377;48.540;9.268;2024-01-30T00:02:47;98822.16;;;1.67;100.00
5284;BME280;15377;48.540;9.268;2024-01-30T00:05:12;98810.47;;;1.59;100.00
5284;BME280;15377;48.540;9.268;2024-01-30T00:07:38;98824.94;;;1.77;100.00
5284;BME280;15377;48.540;9.268;2024-01-30T00:10:03;98818.41;;;1.85;100.00
5284;BME280;15377;48.540;9.268;2024-01-30T00:12:29;98826.19;;;1.94;100.00
5284;BME280;15377;48.540;9.268;2024-01-30T00:14:55;98826.19;;;1.97;100.00
5284;BME280;15377;48.540;9.268;2024-01-30T00:17:20;98827.75;;;1.98;100.00
5284;BME280;15377;48.540;9.268;2024-01-30T00:19:46;98820.34;;;1.88;100.00
5284;BME280;15377;48.540;9.268;2024-01-30T00:22:11;98821.84;;;1.82;100.00
5284;BME280;15377;48.540;9.268;2024-01-30T00:24:37;98827.22;;;1.75;100.00
5284;BME280;15377;48.540;9.268;2024-01-30T00:27:02;98826.44;;;1.68;100.00
5284;BME280;15377;48.540;9.268;2024-01-30T00:29:28;98828.34;;;1.67;100.00
5284;BME280;15377;48.540;9.268;2024-01-30T00:31:56;98830.66;;;1.65;100.00
5284;BME280;15377;48.540;9.268;2024-01-30T00:34:21;98833.78;;;1.67;100.00
5284;BME280;15377;48.540;9.268;2024-01-30T00:36:47;98831.50;;;1.69;100.00
5284;BME280;15377;48.540;9.268;2024-01-30T00:39:12;98829.19;;;1.75;100.00
5284;BME280;15377;48.540;9.268;2024-01-30T00:41:37;98826.06;;;1.73;100.00
5284;BME280;15377;48.540;9.268;2024-01-30T00:44:03;98833.84;;;1.78;100.00
5284;BME280;15377;48.540;9.268;2024-01-30T00:46:28;98832.28;;;1.77;100.00
5284;BME280;15377;48.540;9.268;2024-01-30T00:48:54;98836.16;;;1.76;100.00
5284;BME280;15377;48.540;9.268;2024-01-30T00:51:19;98827.63;;;1.70;100.00
5284;BME280;15377;48.540;9.268;2024-01-30T00:53:45;98830.63;;;1.58;100.00
5284;BME280;15377;48.540;9.268;2024-01-30T00:56:10;98835.94;;;1.44;100.00
5284;BME280;15377;48.540;9.268;2024-01-30T00:58:35;98842.88;;;1.35;100.00
5284;BME280;15377;48.540;9.268;2024-01-30T01:01:01;98840.47;;;1.26;100.00
5284;BME280;15377;48.540;9.268;2024-01-30T01:03:26;98839.69;;;1.22;100.00
5284;BME280;15377;48.540;9.268;2024-01-30T01:05:51;98841.13;;;1.13;100.00
5284;BME280;15377;48.540;9.268;2024-01-30T01:08:17;98838.78;;;1.11;100.00
5284;BME280;15377;48.540;9.268;2024-01-30T01:10:43;98842.38;;;1.22;100.00
5284;BME280;15377;48.540;9.268;2024-01-30T01:13:08;98838.09;;;1.21;100.00
5284;BME280;15377;48.540;9.268;2024-01-30T01:15:33;98845.13;;;1.29;100.00
5284;BME280;15377;48.540;9.268;2024-01-30T01:17:59;98839.75;;;1.36;100.00
5284;BME280;15377;48.540;9.268;2024-01-30T01:20:24;98839.84;;;1.47;100.00
5284;BME280;15377;48.540;9.268;2024-01-30T01:22:49;98824.38;;;1.47;100.00
5284;BME280;15377;48.540;9.268;2024-01-30T01:25:15;98834.94;;;1.66;100.00
5284;BME280;15377;48.540;9.268;2024-01-30T01:27:40;98838.41;;;1.63;100.00
5284;BME280;15377;48.540;9.268;2024-01-30T01:30:10;98843.78;;;1.56;100.00
5284;BME280;15377;48.540;9.268;2024-01-30T01:32:37;98833.34;;;1.58;100.00
5284;BME280;15377;48.540;9.268;2024-01-30T01:35:03;98832.59;;;1.61;100.00
5284;BME280;15377;48.540;9.268;2024-01-30T01:37:30;98826.75;;;1.59;100.00
5284;BME280;15377;48.540;9.268;2024-01-30T01:39:56;98830.88;;;1.39;100.00
5284;BME280;15377;48.540;9.268;2024-01-30T01:42:21;98832.00;;;1.31;100.00
5284;BME280;15377;48.540;9.268;2024-01-30T01:44:47;98820.19;;;1.10;100.00
5284;BME280;15377;48.540;9.268;2024-01-30T01:47:13;98832.91;;;1.02;100.00
5284;BME280;15377;48.540;9.268;2024-01-30T01:49:39;98833.97;;;0.91;100.00
5284;BME280;15377;48.540;9.268;2024-01-30T01:52:05;98823.03;;;0.80;100.00
5284;BME280;15377;48.540;9.268;2024-01-30T01:54:31;98834.66;;;0.81;100.00
5284;BME280;15377;48.540;9.268;2024-01-30T01:56:57;98832.38;;;0.86;100.00
5284;BME280;15377;48.540;9.268;2024-01-30T01:59:23;98827.81;;;0.97;100.00
5284;BME280;15377;48.540;9.268;2024-01-30T02:01:49;98827.81;;;0.97;100.00
5284;BME280;15377;48.540;9.268;2024-01-30T02:04:16;98813.91;;;0.99;100.00
5284;BME280;15377;48.540;9.268;2024-01-30T02:06:43;98830.72;;;1.18;100.00
5284;BME280;15377;48.540;9.268;2024-01-30T02:09:08;98821.88;;;1.28;100.00
5284;BME280;15377;48.540;9.268;2024-01-30T02:11:34;98825.03;;;1.37;100.00
5284;BME280;15377;48.540;9.268;2024-01-30T02:14:03;98825.09;;;1.44;100.00
5284;BME280;15377;48.540;9.268;2024-01-30T02:16:29;98826.28;;;1.47;100.00
5284;BME280;15377;48.540;9.268;2024-01-30T02:18:55;98821.31;;;1.56;100.00
5284;BME280;15377;48.540;9.268;2024-01-30T02:21:20;98821.31;;;1.59;100.00
5284;BME280;15377;48.540;9.268;2024-01-30T02:23:49;98825.19;;;1.58;100.00
5284;BME280;15377;48.540;9.268;2024-01-30T02:26:15;98822.88;;;1.60;100.00
5284;BME280;15377;48.540;9.268;2024-01-30T02:28:41;98818.94;;;1.47;100.00
5284;BME280;15377;48.540;9.268;2024-01-30T02:31:06;98817.41;;;1.53;100.00
5284;BME280;15377;48.540;9.268;2024-01-30T02:33:32;98819.75;;;1.55;100.00
5284;BME280;15377;48.540;9.268;2024-01-30T02:35:57;98815.88;;;1.56;100.00
5284;BME280;15377;48.540;9.268;2024-01-30T02:38:22;98821.31;;;1.59;100.00
5284;BME280;15377;48.540;9.268;2024-01-30T02:40:49;98822.06;;;1.53;100.00
5284;BME280;15377;48.540;9.268;2024-01-30T02:43:14;98806.53;;;1.46;100.00
5284;BME280;15377;48.540;9.268;2024-01-30T02:45:39;98813.47;;;1.40;100.00
5284;BME280;15377;48.540;9.268;2024-01-30T02:48:05;98808.81;;;1.44;100.00
5284;BME280;15377;48.540;9.268;2024-01-30T02:50:31;98815.81;;;1.45;100.00
5284;BME280;15377;48.540;9.268;2024-01-30T02:52:56;98802.56;;;1.33;100.00
5284;BME280;15377;48.540;9.268;2024-01-30T02:55:21;98817.28;;;1.32;100.00
5284;BME280;15377;48.540;9.268;2024-01-30T02:57:47;98798.59;;;1.20;100.00
5284;BME280;15377;48.540;9.268;2024-01-30T03:00:12;98811.81;;;1.25;100.00
5284;BME280;15377;48.540;9.268;2024-01-30T03:02:38;98814.06;;;1.16;100.00
5284;BME280;15377;48.540;9.268;2024-01-30T03:05:05;98812.50;;;1.15;100.00
5284;BME280;15377;48.540;9.268;2024-01-30T03:07:30;98821.03;;;1.17;100.00
5284;BME280;15377;48.540;9.268;2024-01-30T03:09:56;98816.38;;;1.14;100.00
5284;BME280;15377;48.540;9.268;2024-01-30T03:12:21;98814.06;;;1.16;100.00
5284;BME280;15377;48.540;9.268;2024-01-30T03:14:47;98810.19;;;1.17;100.00
5284;BME280;15377;48.540;9.268;2024-01-30T03:17:12;98815.59;;;1.14;100.00
5284;BME280;15377;48.540;9.268;2024-01-30T03:19:38;98814.41;;;1.11;100.00
5284;BME280;15377;48.540;9.268;2024-01-30T03:22:03;98794.53;;;0.97;100.00
5284;BME280;15377;48.540;9.268;2024-01-30T03:24:28;98815.22;;;1.15;100.00
5284;BME280;15377;48.540;9.268;2024-01-30T03:26:54;98828.81;;;1.19;100.00
5284;BME280;15377;48.540;9.268;2024-01-30T03:29:19;98824.19;;;1.26;100.00
5284;BME280;15377;48.540;9.268;2024-01-30T03:31:44;98818.78;;;1.26;100.00
5284;BME280;15377;48.540;9.268;2024-01-30T03:34:10;98819.47;;;1.16;100.00
5284;BME280;15377;48.540;9.268;2024-01-30T03:36:35;98820.97;;;1.10;100.00
5284;BME280;15377;48.540;9.268;2024-01-30T03:39:01;98816.09;;;1.30;100.00
5284;BME280;15377;48.540;9.268;2024-01-30T03:41:26;98828.91;;;1.36;100.00
5284;BME280;15377;48.540;9.268;2024-01-30T03:43:52;98822.72;;;1.36;100.00
5284;BME280;15377;48.540;9.268;2024-01-30T03:46:17;98824.69;;;1.39;100.00
5284;BME280;15377;48.540;9.268;2024-01-30T03:48:43;98823.88;;;1.35;100.00
5284;BME280;15377;48.540;9.268;2024-01-30T03:51:09;98821.09;;;1.24;100.00
5284;BME280;15377;48.540;9.268;2024-01-30T03:53:39;98829.59;;;1.23;100.00
5284;BME280;15377;48.540;9.268;2024-01-30T03:56:05;98825.69;;;1.20;100.00
5284;BME280;15377;48.540;9.268;2024-01-30T03:58:30;98826.91;;;1.26;100.00
5284;BME280;15377;48.540;9.268;2024-01-30T04:00:56;98821.84;;;1.25;100.00
5284;BME280;15377;48.540;9.268;2024-01-30T04:03:21;98824.13;;;1.19;100.00
5284;BME280;15377;48.540;9.268;2024-01-30T04:05:46;98832.63;;;1.14;100.00
5284;BME280;15377;48.540;9.268;2024-01-30T04:08:12;98821.78;;;1.14;100.00
5284;BME280;15377;48.540;9.268;2024-01-30T04:10:37;98808.53;;;1.06;100.00
5284;BME280;15377;48.540;9.268;2024-01-30T04:13:02;98830.06;;;0.88;100.00
5284;BME280;15377;48.540;9.268;2024-01-30T04:15:28;98826.72;;;0.62;100.00
5284;BME280;15377;48.540;9.268;2024-01-30T04:17:57;98814.25;;;0.54;100.00
5284;BME280;15377;48.540;9.268;2024-01-30T04:20:22;98835.06;;;0.46;100.00
5284;BME280;15377;48.540;9.268;2024-01-30T04:22:48;98834.25;;;0.42;100.00
5284;BME280;15377;48.540;9.268;2024-01-30T04:25:13;98825.75;;;0.44;100.00
5284;BME280;15377;48.540;9.268;2024-01-30T04:27:39;98825.00;;;0.47;100.00
5284;BME280;15377;48.540;9.268;2024-01-30T04:30:05;98818.03;;;0.46;100.00
5284;BME280;15377;48.540;9.268;2024-01-30T04:32:31;98827.63;;;0.36;100.00
5284;BME280;15377;48.540;9.268;2024-01-30T04:34:56;98823.19;;;0.21;100.00
5284;BME280;15377;48.540;9.268;2024-01-30T04:37:22;98823.88;;;0.15;100.00
5284;BME280;15377;48.540;9.268;2024-01-30T04:39:48;98816.13;;;0.13;100.00
5284;BME280;15377;48.540;9.268;2024-01-30T04:42:13;98806.03;;;0.10;100.00
5284;BME280;15377;48.540;9.268;2024-01-30T04:44:39;98825.31;;;0.05;100.00
5284;BME280;15377;48.540;9.268;2024-01-30T04:47:04;98817.91;;;0.02;100.00
5284;BME280;15377;48.540;9.268;2024-01-30T04:49:31;98815.66;;;0.04;100.00
5284;BME280;15377;48.540;9.268;2024-01-30T04:51:56;98820.00;;;0.12;100.00
5284;BME280;15377;48.540;9.268;2024-01-30T04:54:23;98829.31;;;0.18;100.00
5284;BME280;15377;48.540;9.268;2024-01-30T04:56:48;98827.94;;;0.31;100.00
5284;BME280;15377;48.540;9.268;2024-01-30T04:59:14;98830.97;;;0.26;100.00
5284;BME280;15377;48.540;9.268;2024-01-30T05:01:39;98825.47;;;0.19;100.00
5284;BME280;15377;48.540;9.268;2024-01-30T05:04:07;98824.06;;;0.32;100.00
5284;BME280;15377;48.540;9.268;2024-01-30T05:06:32;98822.53;;;0.31;100.00
5284;BME280;15377;48.540;9.268;2024-01-30T05:08:58;98830.97;;;0.26;100.00
5284;BME280;15377;48.540;9.268;2024-01-30T05:11:23;98828.59;;;0.21;100.00
5284;BME280;15377;48.540;9.268;2024-01-30T05:13:48;98820.81;;;0.16;100.00
5284;BME280;15377;48.540;9.268;2024-01-30T05:16:14;98826.69;;;0.25;100.00
5284;BME280;15377;48.540;9.268;2024-01-30T05:18:39;98834.50;;;0.30;100.00
5284;BME280;15377;48.540;9.268;2024-01-30T05:21:05;98836.47;;;0.33;100.00
5284;BME280;15377;48.540;9.268;2024-01-30T05:23:31;98836.06;;;0.31;100.00
5284;BME280;15377;48.540;9.268;2024-01-30T05:25:56;98821.19;;;0.18;100.00
5284;BME280;15377;48.540;9.268;2024-01-30T05:28:21;98825.97;;;0.28;100.00
5284;BME280;15377;48.540;9.268;2024-01-30T05:30:47;98833.13;;;0.43;100.00
5284;BME280;15377;48.540;9.268;2024-01-30T05:33:12;98836.69;;;0.54;100.00
5284;BME280;15377;48.540;9.268;2024-01-30T05:35:38;98825.13;;;0.57;100.00
5284;BME280;15377;48.540;9.268;2024-01-30T05:38:04;98834.47;;;0.63;100.00
5284;BME280;15377;48.540;9.268;2024-01-30T05:40:30;98828.28;;;0.66;100.00
5284;BME280;15377;48.540;9.268;2024-01-30T05:42:55;98828.59;;;0.54;100.00
5284;BME280;15377;48.540;9.268;2024-01-30T05:45:21;98834.63;;;0.41;100.00
5284;BME280;15377;48.540;9.268;2024-01-30T05:47:48;98832.50;;;0.27;100.00
5284;BME280;15377;48.540;9.268;2024-01-30T05:50:13;98827.72;;;0.14;100.00
5284;BME280;15377;48.540;9.268;2024-01-30T05:52:39;98838.06;;;0.05;100.00
5284;BME280;15377;48.540;9.268;2024-01-30T05:55:04;98841.91;;;0.04;100.00
5284;BME280;15377;48.540;9.268;2024-01-30T05:57:30;98837.59;;;-0.01;100.00
5284;BME280;15377;48.540;9.268;2024-01-30T05:59:56;98826.88;;;0.06;100.00
5284;BME280;15377;48.540;9.268;2024-01-30T06:02:21;98832.81;;;0.19;100.00
5284;BME280;15377;48.540;9.268;2024-01-30T06:04:46;98834.81;;;0.25;100.00
5284;BME280;15377;48.540;9.268;2024-01-30T06:07:12;98839.44;;;0.21;100.00
5284;BME280;15377;48.540;9.268;2024-01-30T06:09:37;98833.94;;;0.14;100.00
5284;BME280;15377;48.540;9.268;2024-01-30T06:12:04;98841.69;;;0.16;100.00
5284;BME280;15377;48.540;9.268;2024-01-30T06:14:30;98840.91;;;0.15;100.00
5284;BME280;15377;48.540;9.268;2024-01-30T06:16:56;98826.50;;;0.08;100.00
5284;BME280;15377;48.540;9.268;2024-01-30T06:19:21;98839.44;;;0.21;100.00
5284;BME280;15377;48.540;9.268;2024-01-30T06:21:46;98839.53;;;0.28;100.00
5284;BME280;15377;48.540;9.268;2024-01-30T06:24:12;98834.00;;;0.21;100.00
5284;BME280;15377;48.540;9.268;2024-01-30T06:26:37;98842.13;;;0.21;100.00
5284;BME280;15377;48.540;9.268;2024-01-30T06:29:02;98834.66;;;0.11;100.00
5284;BME280;15377;48.540;9.268;2024-01-30T06:31:28;98843.41;;;0.01;100.00
5284;BME280;15377;48.540;9.268;2024-01-30T06:33:53;98843.66;;;-0.10;100.00
5284;BME280;15377;48.540;9.268;2024-01-30T06:36:19;98853.66;;;-0.14;100.00
5284;BME280;15377;48.540;9.268;2024-01-30T06:38:44;98848.06;;;0.01;100.00
5284;BME280;15377;48.540;9.268;2024-01-30T06:41:09;98850.88;;;0.11;100.00
5284;BME280;15377;48.540;9.268;2024-01-30T06:43:35;98835.44;;;0.12;100.00
5284;BME280;15377;48.540;9.268;2024-01-30T06:46:00;98847.22;;;0.26;100.00
5284;BME280;15377;48.540;9.268;2024-01-30T06:48:25;98853.50;;;0.34;100.00
5284;BME280;15377;48.540;9.268;2024-01-30T06:50:53;98847.22;;;0.26;100.00
5284;BME280;15377;48.540;9.268;2024-01-30T06:53:19;98839.44;;;0.21;100.00
5284;BME280;15377;48.540;9.268;2024-01-30T06:55:44;98848.13;;;0.37;100.00
5284;BME280;15377;48.540;9.268;2024-01-30T06:58:10;98850.09;;;0.40;100.00
5284;BME280;15377;48.540;9.268;2024-01-30T07:00:35;98855.53;;;0.44;100.00
5284;BME280;15377;48.540;9.268;2024-01-30T07:03:01;98846.66;;;0.43;100.00
5284;BME280;15377;48.540;9.268;2024-01-30T07:05:27;98848.94;;;0.41;100.00
5284;BME280;15377;48.540;9.268;2024-01-30T07:07:52;98859.47;;;0.50;100.00
5284;BME280;15377;48.540;9.268;2024-01-30T07:10:17;98857.53;;;0.50;100.00
5284;BME280;15377;48.540;9.268;2024-01-30T07:12:43;98864.97;;;0.57;100.00
5284;BME280;15377;48.540;9.268;2024-01-30T07:15:08;98856.50;;;0.62;100.00
5284;BME280;15377;48.540;9.268;2024-01-30T07:17:35;98862.38;;;0.67;100.00
5284;BME280;15377;48.540;9.268;2024-01-30T07:20:00;98857.78;;;0.71;100.00
5284;BME280;15377;48.540;9.268;2024-01-30T07:22:26;98875.50;;;0.65;100.00
5284;BME280;15377;48.540;9.268;2024-01-30T07:24:51;98869.38;;;0.68;100.00
5284;BME280;15377;48.540;9.268;2024-01-30T07:27:17;98875.63;;;0.76;100.00
5284;BME280;15377;48.540;9.268;2024-01-30T07:29:43;98878.03;;;0.84;100.00
5284;BME280;15377;48.540;9.268;2024-01-30T07:32:08;98874.25;;;0.92;100.00
5284;BME280;15377;48.540;9.268;2024-01-30T07:34:34;98868.75;;;0.85;100.00
5284;BME280;15377;48.540;9.268;2024-01-30T07:36:59;98885.38;;;0.84;100.00
5284;BME280;15377;48.540;9.268;2024-01-30T07:39:24;98879.53;;;0.78;100.00
5284;BME280;15377;48.540;9.268;2024-01-30T07:41:49;98885.69;;;0.75;100.00
5284;BME280;15377;48.540;9.268;2024-01-30T07:44:15;98878.69;;;0.74;100.00
5284;BME280;15377;48.540;9.268;2024-01-30T07:46:41;98875.34;;;0.84;100.00
5284;BME280;15377;48.540;9.268;2024-01-30T07:49:06;98873.56;;;1.02;100.00
5284;BME280;15377;48.540;9.268;2024-01-30T07:51:31;98878.38;;;1.19;100.00
5284;BME280;15377;48.540;9.268;2024-01-30T07:53:58;98871.50;;;1.32;100.00
5284;BME280;15377;48.540;9.268;2024-01-30T07:56:23;98871.56;;;1.39;100.00
5284;BME280;15377;48.540;9.268;2024-01-30T07:58:49;98870.47;;;1.47;100.00
5284;BME280;15377;48.540;9.268;2024-01-30T08:01:15;98866.63;;;1.52;100.00
5284;BME280;15377;48.540;9.268;2024-01-30T08:03:40;98871.75;;;1.67;100.00
5284;BME280;15377;48.540;9.268;2024-01-30T08:06:07;98864.50;;;1.82;100.00
5284;BME280;15377;48.540;9.268;2024-01-30T08:08:32;98873.50;;;1.96;100.00
5284;BME280;15377;48.540;9.268;2024-01-30T08:10:58;98865.03;;;2.05;100.00
5284;BME280;15377;48.540;9.268;2024-01-30T08:13:23;98868.22;;;2.24;100.00
5284;BME280;15377;48.540;9.268;2024-01-30T08:15:48;98872.53;;;2.39;100.00
5284;BME280;15377;48.540;9.268;2024-01-30T08:18:14;98872.25;;;2.58;100.00
5284;BME280;15377;48.540;9.268;2024-01-30T08:20:39;98871.50;;;2.68;100.00
5284;BME280;15377;48.540;9.268;2024-01-30T08:23:04;98873.09;;;2.90;100.00
5284;BME280;15377;48.540;9.268;2024-01-30T08:25:30;98873.91;;;3.08;100.00
5284;BME280;15377;48.540;9.268;2024-01-30T08:27:55;98870.81;;;3.24;100.00
5284;BME280;15377;48.540;9.268;2024-01-30T08:30:21;98875.06;;;3.42;100.00
5284;BME280;15377;48.540;9.268;2024-01-30T08:32:46;98870.81;;;3.58;100.00
5284;BME280;15377;48.540;9.268;2024-01-30T08:35:12;98873.91;;;3.74;100.00
5284;BME280;15377;48.540;9.268;2024-01-30T08:37:40;98873.09;;;3.88;100.00
5284;BME280;15377;48.540;9.268;2024-01-30T08:40:05;98865.28;;;4.04;100.00
5284;BME280;15377;48.540;9.268;2024-01-30T08:42:31;98866.81;;;4.19;100.00
5284;BME280;15377;48.540;9.268;2024-01-30T08:44:58;98862.84;;;4.34;100.00
5284;BME280;15377;48.540;9.268;2024-01-30T08:47:23;98856.56;;;4.51;100.00
5284;BME280;15377;48.540;9.268;2024-01-30T08:49:48;98866.63;;;4.64;100.00
5284;BME280;15377;48.540;9.268;2024-01-30T08:52:14;98870.38;;;4.91;100.00
5284;BME280;15377;48.540;9.268;2024-01-30T08:54:39;98871.06;;;5.02;100.00
5284;BME280;15377;48.540;9.268;2024-01-30T08:57:05;98870.94;;;5.23;100.00
5284;BME280;15377;48.540;9.268;2024-01-30T08:59:30;98869.69;;;5.35;100.00
5284;BME280;15377;48.540;9.268;2024-01-30T09:01:55;98880.06;;;5.54;100.00
5284;BME280;15377;48.540;9.268;2024-01-30T09:04:23;98874.25;;;5.96;100.00
5284;BME280;15377;48.540;9.268;2024-01-30T09:06:48;98865.16;;;6.43;100.00
5284;BME280;15377;48.540;9.268;2024-01-30T09:09:14;98880.53;;;6.93;100.00
5284;BME280;15377;48.540;9.268;2024-01-30T09:11:40;98874.06;;;7.07;100.00
5284;BME280;15377;48.540;9.268;2024-01-30T09:14:05;98887.53;;;7.47;100.00
5284;BME280;15377;48.540;9.268;2024-01-30T09:16:31;98891.53;;;7.65;100.00
5284;BME280;15377;48.540;9.268;2024-01-30T09:18:56;98890.47;;;7.82;100.00
5284;BME280;15377;48.540;9.268;2024-01-30T09:21:21;98889.28;;;8.06;100.00
5284;BME280;15377;48.540;9.268;2024-01-30T09:23:47;98891.94;;;8.33;100.00
5284;BME280;15377;48.540;9.268;2024-01-30T09:26:12;98887.78;;;8.83;100.00
5284;BME280;15377;48.540;9.268;2024-01-30T09:28:38;98894.00;;;8.87;100.00
5284;BME280;15377;48.540;9.268;2024-01-30T09:31:03;98897.88;;;8.70;100.00
5284;BME280;15377;48.540;9.268;2024-01-30T09:33:29;98902.03;;;8.78;100.00
5284;BME280;15377;48.540;9.268;2024-01-30T09:35:54;98906.06;;;9.09;100.00
5284;BME280;15377;48.540;9.268;2024-01-30T09:38:20;98903.72;;;9.59;100.00
5284;BME280;15377;48.540;9.268;2024-01-30T09:40:50;98893.91;;;10.22;100.00
5284;BME280;15377;48.540;9.268;2024-01-30T09:43:22;98901.00;;;11.05;100.00
5284;BME280;15377;48.540;9.268;2024-01-30T09:45:50;98878.97;;;11.55;98.71
5284;BME280;15377;48.540;9.268;2024-01-30T09:48:15;98899.13;;;12.02;93.50
5284;BME280;15377;48.540;9.268;2024-01-30T09:50:41;98896.22;;;12.18;89.80
5284;BME280;15377;48.540;9.268;2024-01-30T09:53:08;98897.50;;;11.92;91.24
5284;BME280;15377;48.540;9.268;2024-01-30T09:55:35;98896.06;;;11.37;94.49
5284;BME280;15377;48.540;9.268;2024-01-30T09:58:01;98879.03;;;10.89;98.42
5284;BME280;15377;48.540;9.268;2024-01-30T10:00:26;98898.44;;;10.57;99.76
5284;BME280;15377;48.540;9.268;2024-01-30T10:02:52;98902.31;;;10.31;100.00
5284;BME280;15377;48.540;9.268;2024-01-30T10:05:19;98890.00;;;10.07;100.00
5284;BME280;15377;48.540;9.268;2024-01-30T10:07:53;98895.16;;;10.05;100.00
5284;BME280;15377;48.540;9.268;2024-01-30T10:10:22;98886.09;;;9.89;100.00
5284;BME280;15377;48.540;9.268;2024-01-30T10:12:48;98903.41;;;9.89;100.00
5284;BME280;15377;48.540;9.268;2024-01-30T10:15:14;98902.19;;;9.74;100.00
5284;BME280;15377;48.540;9.268;2024-01-30T10:17:39;98900.97;;;9.59;100.00
5284;BME280;15377;48.540;9.268;2024-01-30T10:20:05;98897.13;;;9.57;100.00
5284;BME280;15377;48.540;9.268;2024-01-30T10:22:31;98897.81;;;9.61;100.00
5284;BME280;15377;48.540;9.268;2024-01-30T10:24:56;98901.66;;;9.63;100.00
5284;BME280;15377;48.540;9.268;2024-01-30T10:27:27;98896.69;;;9.58;100.00
5284;BME280;15377;48.540;9.268;2024-01-30T10:29:55;98879.94;;;9.53;100.00
5284;BME280;15377;48.540;9.268;2024-01-30T10:32:20;98903.66;;;9.79;100.00
5284;BME280;15377;48.540;9.268;2024-01-30T10:34:46;98900.88;;;9.95;100.00
5284;BME280;15377;48.540;9.268;2024-01-30T10:37:12;98893.06;;;9.93;100.00
5284;BME280;15377;48.540;9.268;2024-01-30T10:39:41;98901.94;;;9.85;100.00
5284;BME280;15377;48.540;9.268;2024-01-30T10:42:11;98896.69;;;9.74;100.00
5284;BME280;15377;48.540;9.268;2024-01-30T10:45:17;98896.69;;;9.42;100.00
5284;BME280;15377;48.540;9.268;2024-01-30T10:47:53;98892.38;;;9.25;100.00
5284;BME280;15377;48.540;9.268;2024-01-30T10:50:19;98889.97;;;9.27;100.00
5284;BME280;15377;48.540;9.268;2024-01-30T10:52:46;98884.63;;;9.20;100.00
5284;BME280;15377;48.540;9.268;2024-01-30T10:55:13;98888.75;;;9.28;100.00
5284;BME280;15377;48.540;9.268;2024-01-30T10:57:40;98887.63;;;9.26;100.00
5284;BME280;15377;48.540;9.268;2024-01-30T11:00:11;98887.88;;;9.31;100.00
5284;BME280;15377;48.540;9.268;2024-01-30T11:02:39;98874.88;;;9.35;100.00
5284;BME280;15377;48.540;9.268;2024-01-30T11:05:05;98880.78;;;9.50;100.00
5284;BME280;15377;48.540;9.268;2024-01-30T11:07:31;98876.59;;;9.61;100.00
5284;BME280;15377;48.540;9.268;2024-01-30T11:10:01;98879.84;;;9.88;100.00
5284;BME280;15377;48.540;9.268;2024-01-30T11:12:33;98873.06;;;10.09;100.00
5284;BME280;15377;48.540;9.268;2024-01-30T11:20:16;98867.00;;;10.58;100.00
5284;BME280;15377;48.540;9.268;2024-01-30T11:22:44;98878.00;;;10.58;100.00
5284;BME280;15377;48.540;9.268;2024-01-30T11:25:14;98871.34;;;10.43;100.00
5284;BME280;15377;48.540;9.268;2024-01-30T11:27:41;98872.91;;;10.57;100.00
5284;BME280;15377;48.540;9.268;2024-01-30T11:30:07;98865.59;;;10.79;100.00
5284;BME280;15377;48.540;9.268;2024-01-30T11:32:33;98855.38;;;10.91;100.00
5284;BME280;15377;48.540;9.268;2024-01-30T11:34:58;98867.19;;;11.17;100.00
5284;BME280;15377;48.540;9.268;2024-01-30T11:37:25;98864.00;;;11.31;100.00
5284;BME280;15377;48.540;9.268;2024-01-30T11:39:51;98863.56;;;11.45;100.00
5284;BME280;15377;48.540;9.268;2024-01-30T11:42:19;98852.28;;;11.52;100.00
5284;BME280;15377;48.540;9.268;2024-01-30T11:44:48;98854.28;;;11.64;100.00
5284;BME280;15377;48.540;9.268;2024-01-30T11:47:14;98865.84;;;11.71;100.00
5284;BME280;15377;48.540;9.268;2024-01-30T11:49:40;98866.19;;;11.73;100.00
5284;BME280;15377;48.540;9.268;2024-01-30T11:52:05;98862.75;;;11.82;100.00
5284;BME280;15377;48.540;9.268;2024-01-30T11:54:31;98847.19;;;11.88;100.00
5284;BME280;15377;48.540;9.268;2024-01-30T11:56:56;98850.72;;;11.76;100.00
5284;BME280;15377;48.540;9.268;2024-01-30T11:59:22;98842.81;;;11.78;95.65
5284;BME280;15377;48.540;9.268;2024-01-30T12:01:47;98848.31;;;11.78;93.62
5284;BME280;15377;48.540;9.268;2024-01-30T12:04:13;98844.09;;;11.86;93.17
5284;BME280;15377;48.540;9.268;2024-01-30T12:06:39;98844.19;;;11.95;94.44
5284;BME280;15377;48.540;9.268;2024-01-30T12:09:05;98844.38;;;12.00;96.29
5284;BME280;15377;48.540;9.268;2024-01-30T12:11:33;98833.47;;;11.97;96.57
5284;BME280;15377;48.540;9.268;2024-01-30T12:13:58;98838.44;;;12.02;95.61
5284;BME280;15377;48.540;9.268;2024-01-30T12:16:24;98825.50;;;11.99;96.95
5284;BME280;15377;48.540;9.268;2024-01-30T12:18:59;98824.13;;;12.16;94.33
5284;BME280;15377;48.540;9.268;2024-01-30T12:21:24;98822.38;;;12.31;93.20
5284;BME280;15377;48.540;9.268;2024-01-30T12:23:50;98823.38;;;12.37;95.40
5284;BME280;15377;48.540;9.268;2024-01-30T12:26:15;98820.78;;;12.42;97.16
5284;BME280;15377;48.540;9.268;2024-01-30T12:28:50;98816.41;;;12.54;96.96
5284;BME280;15377;48.540;9.268;2024-01-30T12:31:15;98815.41;;;12.60;99.44
5284;BME280;15377;48.540;9.268;2024-01-30T12:33:41;98813.28;;;12.64;97.65
5284;BME280;15377;48.540;9.268;2024-01-30T12:36:06;98802.88;;;12.68;100.00
5284;BME280;15377;48.540;9.268;2024-01-30T12:38:32;98792.28;;;12.67;98.43
5284;BME280;15377;48.540;9.268;2024-01-30T12:40:58;98795.72;;;12.80;97.50
5284;BME280;15377;48.540;9.268;2024-01-30T12:43:26;98803.13;;;12.92;96.64
5284;BME280;15377;48.540;9.268;2024-01-30T12:45:52;98808.13;;;12.97;92.50
5284;BME280;15377;48.540;9.268;2024-01-30T12:48:18;98803.84;;;13.05;90.99
5284;BME280;15377;48.540;9.268;2024-01-30T12:50:43;98805.13;;;13.13;87.46
5284;BME280;15377;48.540;9.268;2024-01-30T12:53:09;98806.06;;;13.19;87.09
5284;BME280;15377;48.540;9.268;2024-01-30T12:55:34;98805.28;;;13.18;86.03
5284;BME280;15377;48.540;9.268;2024-01-30T12:58:00;98807.31;;;13.27;84.81
5284;BME280;15377;48.540;9.268;2024-01-30T13:00:25;98811.34;;;13.35;87.43
5284;BME280;15377;48.540;9.268;2024-01-30T13:02:51;98795.06;;;13.37;88.06
5284;BME280;15377;48.540;9.268;2024-01-30T13:05:16;98806.13;;;13.37;85.03
5284;BME280;15377;48.540;9.268;2024-01-30T13:07:42;98797.53;;;13.44;81.74